createdAt,value
2022-09-02T00:01:02.784Z,16.62
2022-09-02T00:03:33.841Z,16.55
2022-09-02T00:06:02.338Z,16.45
2022-09-02T00:08:31.858Z,16.51
2022-09-02T00:11:02.207Z,16.45
2022-09-02T00:13:31.459Z,16.48
2022-09-02T00:15:59.112Z,16.43
2022-09-02T00:18:27.229Z,16.37
2022-09-02T00:20:57.491Z,16.50
2022-09-02T00:23:25.606Z,16.34
2022-09-02T00:25:55.309Z,16.24
2022-09-02T00:28:22.986Z,16.30
2022-09-02T00:30:51.887Z,16.27
2022-09-02T00:33:19.962Z,16.16
2022-09-02T00:35:48.044Z,16.30
2022-09-02T00:38:17.081Z,16.21
2022-09-02T00:40:46.116Z,16.19
2022-09-02T00:43:14.061Z,16.26
2022-09-02T00:45:41.818Z,16.17
2022-09-02T00:48:09.509Z,16.14
2022-09-02T00:50:37.994Z,16.01
2022-09-02T00:53:08.343Z,16.14
2022-09-02T00:55:41.078Z,16.08
2022-09-02T00:58:14.219Z,16.08
2022-09-02T01:00:44.603Z,16.02
2022-09-02T01:03:14.340Z,15.90
2022-09-02T01:05:45.438Z,16.02
2022-09-02T01:08:13.833Z,15.80
2022-09-02T01:10:43.228Z,15.81
2022-09-02T01:13:13.334Z,15.69
2022-09-02T01:15:44.558Z,15.70
2022-09-02T01:18:15.715Z,15.73
2022-09-02T01:20:43.535Z,15.79
2022-09-02T01:23:12.790Z,15.69
2022-09-02T01:25:40.539Z,15.66
2022-09-02T01:28:10.526Z,15.70
2022-09-02T01:30:39.687Z,15.71
2022-09-02T01:33:07.316Z,15.69
2022-09-02T01:35:35.227Z,15.63
2022-09-02T01:38:03.413Z,15.74
2022-09-02T01:40:33.361Z,15.68
2022-09-02T01:43:03.335Z,15.61
2022-09-02T01:45:30.945Z,15.62
2022-09-02T01:47:58.577Z,15.68
2022-09-02T01:50:26.463Z,15.59
2022-09-02T01:52:54.308Z,15.58
2022-09-02T01:55:22.773Z,15.44
2022-09-02T01:57:51.772Z,15.43
2022-09-02T02:00:19.893Z,15.46
2022-09-02T02:02:47.586Z,15.39
2022-09-02T02:05:15.874Z,15.23
2022-09-02T02:07:43.874Z,15.31
2022-09-02T02:10:13.491Z,15.34
2022-09-02T02:12:41.716Z,15.25
2022-09-02T02:15:14.911Z,15.33
2022-09-02T02:17:42.941Z,15.30
2022-09-02T02:20:13.195Z,15.32
2022-09-02T02:22:40.912Z,15.22
2022-09-02T02:25:09.294Z,15.18
2022-09-02T02:27:37.054Z,15.18
2022-09-02T02:30:06.630Z,15.15
2022-09-02T02:32:35.953Z,14.97
2022-09-02T02:35:04.433Z,15.03
2022-09-02T02:37:32.265Z,15.20
2022-09-02T02:39:59.931Z,15.00
2022-09-02T02:42:27.813Z,15.09
2022-09-02T02:44:55.526Z,15.14
2022-09-02T02:47:23.262Z,15.06
2022-09-02T02:49:52.266Z,15.10
2022-09-02T02:52:20.573Z,15.02
2022-09-02T02:54:48.327Z,14.98
2022-09-02T02:57:16.050Z,14.96
2022-09-02T02:59:43.754Z,15.00
2022-09-02T03:02:11.734Z,14.95
2022-09-02T03:04:41.164Z,14.96
2022-09-02T03:07:10.300Z,14.94
2022-09-02T03:09:38.067Z,14.86
2022-09-02T03:12:06.444Z,14.99
2022-09-02T03:14:34.184Z,14.89
2022-09-02T03:17:01.989Z,14.78
2022-09-02T03:19:29.704Z,14.83
2022-09-02T03:21:57.340Z,14.72
2022-09-02T03:24:26.430Z,14.78
2022-09-02T03:26:54.438Z,14.77
2022-09-02T03:29:22.146Z,14.69
2022-09-02T03:31:49.800Z,14.64
2022-09-02T03:34:17.526Z,14.73
2022-09-02T03:36:45.206Z,14.70
2022-09-02T03:39:15.082Z,14.58
2022-09-02T03:41:44.426Z,14.59
2022-09-02T03:44:12.415Z,14.55
2022-09-02T03:46:40.070Z,14.46
2022-09-02T03:49:09.326Z,14.41
2022-09-02T03:51:41.211Z,14.53
2022-09-02T03:54:10.466Z,14.50
2022-09-02T03:56:38.926Z,14.29
2022-09-02T03:59:09.212Z,14.29
2022-09-02T04:01:37.156Z,14.34
2022-09-02T04:04:05.192Z,14.33
2022-09-02T04:06:33.349Z,14.27
2022-09-02T04:09:01.178Z,14.29
2022-09-02T04:11:28.856Z,14.33
2022-09-02T04:13:56.580Z,14.23
2022-09-02T04:17:19.340Z,14.26
2022-09-02T04:20:42.295Z,14.30
2022-09-02T04:23:11.656Z,14.32
2022-09-02T04:25:41.051Z,14.15
2022-09-02T04:28:08.844Z,14.20
2022-09-02T04:30:39.442Z,14.10
2022-09-02T04:33:07.169Z,14.14
2022-09-02T04:35:35.842Z,14.17
2022-09-02T04:38:03.949Z,14.04
2022-09-02T04:40:33.087Z,14.12
2022-09-02T04:43:00.946Z,14.07
2022-09-02T04:45:29.951Z,14.19
2022-09-02T04:47:57.908Z,14.10
2022-09-02T04:50:25.700Z,14.07
2022-09-02T04:52:53.368Z,14.00
2022-09-02T04:55:21.260Z,14.12
2022-09-02T04:57:50.231Z,14.02
2022-09-02T05:00:18.861Z,14.06
2022-09-02T05:02:47.021Z,13.98
2022-09-02T05:05:15.028Z,14.22
2022-09-02T05:07:42.638Z,14.13
2022-09-02T05:10:12.771Z,14.20
2022-09-02T05:12:41.880Z,14.19
2022-09-02T05:15:12.251Z,14.11
2022-09-02T05:17:40.351Z,14.15
2022-09-02T05:20:09.460Z,14.15
2022-09-02T05:22:38.132Z,14.14
2022-09-02T05:25:08.683Z,14.25
2022-09-02T05:27:37.058Z,14.31
2022-09-02T05:30:05.552Z,14.28
2022-09-02T05:32:37.738Z,14.31
2022-09-02T05:35:06.578Z,14.35
2022-09-02T05:37:36.086Z,14.38
2022-09-02T05:40:04.734Z,14.43
2022-09-02T05:42:33.531Z,14.40
2022-09-02T05:45:01.384Z,14.42
2022-09-02T05:47:30.224Z,14.62
2022-09-02T05:50:01.549Z,14.69
2022-09-02T05:52:31.174Z,14.71
2022-09-02T05:54:59.138Z,14.77
2022-09-02T05:57:27.976Z,14.85
2022-09-02T05:59:56.891Z,14.70
2022-09-02T06:02:25.850Z,14.84
2022-09-02T06:04:55.418Z,14.95
2022-09-02T06:07:26.293Z,15.06
2022-09-02T06:09:55.264Z,15.12
2022-09-02T06:12:23.594Z,15.08
2022-09-02T06:14:51.278Z,15.20
2022-09-02T06:17:27.273Z,15.32
2022-09-02T06:19:57.806Z,15.42
2022-09-02T06:22:26.933Z,15.39
2022-09-02T06:24:54.698Z,15.44
2022-09-02T06:27:22.626Z,15.46
2022-09-02T06:29:50.867Z,15.54
2022-09-02T06:32:18.587Z,15.56
2022-09-02T06:34:46.305Z,15.71
2022-09-02T06:37:14.077Z,15.87
2022-09-02T06:39:44.789Z,15.90
2022-09-02T06:42:12.528Z,16.13
2022-09-02T06:44:40.184Z,16.12
2022-09-02T06:47:07.948Z,16.25
2022-09-02T06:49:35.583Z,16.30
2022-09-02T06:52:05.425Z,16.16
2022-09-02T06:54:33.147Z,16.25
2022-09-02T06:57:02.283Z,16.40
2022-09-02T06:59:30.326Z,16.44
2022-09-02T07:01:58.329Z,16.57
2022-09-02T07:04:43.823Z,16.66
2022-09-02T07:07:12.053Z,16.92
2022-09-02T07:09:40.693Z,17.01
2022-09-02T07:12:09.991Z,17.03
2022-09-02T07:14:38.510Z,16.76
2022-09-02T07:17:06.313Z,16.81
2022-09-02T07:19:34.184Z,16.93
2022-09-02T07:22:01.887Z,16.82
2022-09-02T07:24:29.603Z,17.16
2022-09-02T07:26:57.278Z,17.46
2022-09-02T07:29:26.874Z,17.61
2022-09-02T07:31:54.536Z,17.69
2022-09-02T07:34:22.666Z,17.89
2022-09-02T07:36:50.407Z,18.03
2022-09-02T07:39:19.480Z,18.07
2022-09-02T07:41:50.042Z,17.86
2022-09-02T07:44:19.190Z,18.07
2022-09-02T07:46:48.515Z,17.78
2022-09-02T07:49:19.802Z,17.95
2022-09-02T07:51:50.507Z,18.29
2022-09-02T07:54:20.307Z,18.48
2022-09-02T07:56:49.705Z,18.50
2022-09-02T07:59:17.997Z,18.31
2022-09-02T08:01:45.686Z,18.40
2022-09-02T08:04:14.721Z,18.59
2022-09-02T08:06:43.105Z,18.72
2022-09-02T08:09:12.130Z,18.50
2022-09-02T08:11:40.306Z,18.74
2022-09-02T08:14:08.595Z,18.84
2022-09-02T08:16:36.503Z,18.83
2022-09-02T08:19:04.811Z,19.26
2022-09-02T08:21:33.821Z,19.12
2022-09-02T08:24:01.627Z,19.31
2022-09-02T08:26:31.226Z,19.26
2022-09-02T08:28:58.873Z,19.46
2022-09-02T08:31:26.651Z,19.70
2022-09-02T08:33:54.458Z,19.85
2022-09-02T08:36:22.197Z,19.97
2022-09-02T08:38:51.343Z,19.88
2022-09-02T08:41:22.981Z,20.10
2022-09-02T08:43:51.581Z,20.02
2022-09-02T08:46:19.944Z,20.19
2022-09-02T08:48:50.714Z,20.15
2022-09-02T08:51:21.707Z,20.23
2022-09-02T08:53:54.999Z,20.55
2022-09-02T08:56:22.682Z,20.65
2022-09-02T08:58:56.193Z,20.61
2022-09-02T09:01:33.575Z,20.90
2022-09-02T09:04:13.713Z,21.08
2022-09-02T09:06:51.754Z,20.96
2022-09-02T09:09:26.983Z,21.08
2022-09-02T09:12:00.769Z,21.16
2022-09-02T09:14:31.443Z,21.18
2022-09-02T09:17:00.659Z,20.90
2022-09-02T09:19:37.266Z,21.18
2022-09-02T09:22:05.287Z,21.10
2022-09-02T09:24:37.653Z,21.20
2022-09-02T09:27:08.552Z,21.25
2022-09-02T09:29:37.059Z,21.37
2022-09-02T09:32:05.444Z,21.33
2022-09-02T09:34:57.463Z,21.63
2022-09-02T09:37:37.087Z,21.61
2022-09-02T09:40:26.294Z,21.41
2022-09-02T09:42:56.954Z,21.73
2022-09-02T09:45:32.336Z,21.71
2022-09-02T09:48:27.630Z,22.05
2022-09-02T09:51:19.155Z,22.04
2022-09-02T09:53:47.167Z,21.78
2022-09-02T09:56:32.261Z,21.48
2022-09-02T09:59:08.646Z,21.97
2022-09-02T10:01:36.828Z,22.41
2022-09-02T10:06:54.215Z,22.52
2022-09-02T10:09:32.376Z,22.65
2022-09-02T10:12:03.936Z,22.63
2022-09-02T10:14:35.880Z,22.54
2022-09-02T10:17:17.380Z,22.74
2022-09-02T10:19:50.091Z,22.92
2022-09-02T10:22:59.549Z,23.12
2022-09-02T10:25:32.349Z,23.02
2022-09-02T10:28:07.183Z,23.18
2022-09-02T10:30:39.447Z,23.45
2022-09-02T10:33:20.854Z,23.63
2022-09-02T10:35:50.930Z,23.34
2022-09-02T10:38:37.053Z,23.66
2022-09-02T10:41:13.820Z,23.77
2022-09-02T10:43:58.807Z,23.68
2022-09-02T10:46:27.129Z,23.55
2022-09-02T10:49:00.075Z,23.28
2022-09-02T10:51:37.125Z,22.76
2022-09-02T10:54:23.415Z,22.71
2022-09-02T10:56:54.696Z,22.99
2022-09-02T10:59:27.667Z,23.53
2022-09-02T11:01:57.493Z,23.69
2022-09-02T11:04:32.551Z,23.54
2022-09-02T11:07:03.264Z,23.77
2022-09-02T11:09:34.999Z,23.63
2022-09-02T11:12:08.558Z,23.54
2022-09-02T11:14:43.707Z,23.55
2022-09-02T11:17:19.152Z,23.90
2022-09-02T11:19:51.072Z,23.95
2022-09-02T11:22:27.643Z,24.11
2022-09-02T11:25:00.624Z,24.03
2022-09-02T11:27:42.227Z,24.24
2022-09-02T11:30:14.077Z,24.43
2022-09-02T11:32:45.520Z,24.51
2022-09-02T11:35:16.149Z,24.30
2022-09-02T11:37:47.191Z,24.36
2022-09-02T11:40:36.097Z,24.31
2022-09-02T11:43:28.595Z,24.77
2022-09-02T11:46:27.440Z,24.85
2022-09-02T11:49:20.483Z,24.57
2022-09-02T11:52:10.429Z,24.65
2022-09-02T11:54:41.319Z,24.85
2022-09-02T11:57:13.469Z,24.77
2022-09-02T12:00:08.064Z,24.86
2022-09-02T12:02:40.624Z,25.02
2022-09-02T12:05:44.947Z,24.89
2022-09-02T12:08:15.004Z,24.38
2022-09-02T12:11:00.091Z,24.53
2022-09-02T12:13:41.076Z,24.76
2022-09-02T12:16:38.782Z,25.09
2022-09-02T12:19:28.968Z,24.85
2022-09-02T12:22:42.559Z,24.72
2022-09-02T12:25:38.170Z,24.62
2022-09-02T12:28:25.316Z,24.57
2022-09-02T12:31:21.796Z,24.91
2022-09-02T12:33:51.526Z,25.24
2022-09-02T12:36:49.124Z,24.87
2022-09-02T12:39:54.307Z,25.25
2022-09-02T12:42:26.982Z,25.05
2022-09-02T12:45:04.697Z,24.98
2022-09-02T12:47:42.131Z,25.11
2022-09-02T12:50:17.800Z,24.94
2022-09-02T12:52:50.055Z,24.92
2022-09-02T12:55:22.394Z,24.72
2022-09-02T12:57:52.449Z,24.78
2022-09-02T13:00:28.737Z,24.60
2022-09-02T13:03:04.272Z,24.90
2022-09-02T13:05:39.956Z,24.79
2022-09-02T13:08:41.166Z,25.15
2022-09-02T13:11:32.325Z,25.36
2022-09-02T13:14:30.232Z,25.13
2022-09-02T13:17:35.604Z,24.93
2022-09-02T13:20:41.859Z,24.79
2022-09-02T13:23:31.375Z,24.77
2022-09-02T13:26:22.896Z,24.78
2022-09-02T13:29:37.363Z,25.28
2022-09-02T13:32:14.100Z,25.05
2022-09-02T13:34:42.949Z,25.51
2022-09-02T13:37:29.104Z,25.49
2022-09-02T13:39:57.138Z,25.32
2022-09-02T13:42:27.968Z,25.60
2022-09-02T13:45:14.929Z,25.31
2022-09-02T13:47:44.525Z,25.14
2022-09-02T13:50:13.923Z,24.82
2022-09-02T13:55:31.186Z,25.34
2022-09-02T13:58:03.723Z,25.37
2022-09-02T14:00:34.959Z,25.16
2022-09-02T14:03:06.347Z,25.32
2022-09-02T14:05:36.592Z,25.19
2022-09-02T14:08:07.208Z,25.35
2022-09-02T14:10:37.225Z,25.59
2022-09-02T14:13:08.553Z,25.63
2022-09-02T14:15:36.652Z,25.67
2022-09-02T14:18:18.006Z,25.54
2022-09-02T14:20:58.788Z,25.71
2022-09-02T14:23:28.017Z,25.32
2022-09-02T14:25:57.359Z,25.47
2022-09-02T14:28:28.464Z,25.46
2022-09-02T14:30:58.950Z,25.41
2022-09-02T14:33:29.297Z,25.25
2022-09-02T14:36:01.234Z,25.32
2022-09-02T14:38:31.187Z,25.38
2022-09-02T14:41:04.331Z,25.14
2022-09-02T14:43:43.303Z,25.14
2022-09-02T14:46:27.062Z,24.93
2022-09-02T14:48:59.356Z,24.78
2022-09-02T14:51:30.865Z,24.72
2022-09-02T14:53:58.752Z,24.78
2022-09-02T14:56:49.330Z,24.65
2022-09-02T14:59:18.798Z,24.78
2022-09-02T15:01:49.061Z,24.68
2022-09-02T15:04:17.088Z,24.73
2022-09-02T15:06:44.801Z,24.69
2022-09-02T15:09:12.959Z,24.59
2022-09-02T15:11:41.044Z,24.88
2022-09-02T15:14:08.636Z,24.68
2022-09-02T15:16:37.595Z,24.58
2022-09-02T15:19:05.366Z,24.47
2022-09-02T15:21:33.084Z,24.39
2022-09-02T15:24:00.804Z,24.42
2022-09-02T15:26:28.456Z,24.42
2022-09-02T15:28:56.149Z,24.45
2022-09-02T15:31:23.913Z,24.53
2022-09-02T15:33:53.288Z,24.55
2022-09-02T15:36:21.612Z,24.58
2022-09-02T15:38:49.337Z,24.72
2022-09-02T15:41:19.113Z,24.63
2022-09-02T15:43:47.603Z,24.76
2022-09-02T15:46:21.939Z,24.92
2022-09-02T15:48:50.044Z,24.74
2022-09-02T15:51:21.282Z,24.84
2022-09-02T15:53:50.076Z,24.53
2022-09-02T15:56:19.687Z,24.44
2022-09-02T15:58:47.701Z,24.51
2022-09-02T16:01:15.499Z,24.28
2022-09-02T16:03:44.213Z,24.46
2022-09-02T16:06:13.267Z,24.32
2022-09-02T16:08:42.469Z,24.44
2022-09-02T16:11:10.160Z,24.39
2022-09-02T16:13:38.201Z,24.51
2022-09-02T16:16:07.410Z,24.46
2022-09-02T16:18:36.118Z,24.50
2022-09-02T16:21:04.329Z,24.53
2022-09-02T16:23:32.290Z,24.48
2022-09-02T16:26:15.849Z,24.51
2022-09-02T16:28:44.740Z,24.26
2022-09-02T16:31:13.737Z,24.09
2022-09-02T16:33:42.504Z,24.05
2022-09-02T16:36:10.178Z,24.02
2022-09-02T16:38:38.056Z,23.98
2022-09-02T16:41:05.877Z,23.90
2022-09-02T16:43:36.564Z,23.95
2022-09-02T16:46:05.175Z,23.82
2022-09-02T16:48:36.813Z,23.64
2022-09-02T16:51:05.370Z,23.50
2022-09-02T16:53:33.451Z,23.49
2022-09-02T16:56:01.710Z,23.52
2022-09-02T16:58:30.556Z,23.43
2022-09-02T17:00:59.717Z,23.39
2022-09-02T17:03:27.462Z,23.35
2022-09-02T17:05:55.084Z,23.18
2022-09-02T17:08:22.768Z,23.18
2022-09-02T17:10:50.476Z,23.10
2022-09-02T17:13:18.345Z,23.01
2022-09-02T17:15:46.142Z,23.00
2022-09-02T17:18:15.150Z,23.01
2022-09-02T17:20:42.761Z,23.04
2022-09-02T17:23:11.989Z,22.92
2022-09-02T17:25:39.670Z,22.69
2022-09-02T17:30:36.153Z,22.49
2022-09-02T17:33:03.788Z,22.38
2022-09-02T17:35:32.843Z,22.41
2022-09-02T17:38:00.891Z,22.41
2022-09-02T17:40:54.669Z,22.28
2022-09-02T17:43:22.339Z,22.00
2022-09-02T17:45:50.143Z,22.16
2022-09-02T17:48:37.033Z,21.99
2022-09-02T17:51:08.703Z,22.03
2022-09-02T17:53:39.840Z,21.87
2022-09-02T17:56:21.855Z,21.66
2022-09-02T17:58:56.363Z,21.57
2022-09-02T18:01:25.502Z,21.52
2022-09-02T18:04:03.776Z,21.46
2022-09-02T18:06:36.325Z,21.51
2022-09-02T18:09:07.189Z,21.33
2022-09-02T18:11:38.837Z,21.26
2022-09-02T18:14:16.165Z,21.30
2022-09-02T18:16:52.435Z,21.31
2022-09-02T18:19:30.925Z,21.11
2022-09-02T18:22:06.505Z,21.06
2022-09-02T18:24:43.115Z,20.98
2022-09-02T18:27:14.303Z,20.93
2022-09-02T18:29:57.520Z,20.87
2022-09-02T18:32:38.069Z,20.81
2022-09-02T18:35:17.278Z,20.67
2022-09-02T18:37:54.760Z,20.61
2022-09-02T18:40:29.213Z,20.55
2022-09-02T18:43:08.304Z,20.52
2022-09-02T18:45:40.030Z,20.44
2022-09-02T18:48:10.318Z,20.37
2022-09-02T18:50:57.114Z,20.39
2022-09-02T18:53:29.961Z,20.38
2022-09-02T18:55:59.120Z,20.23
2022-09-02T18:58:38.066Z,20.23
2022-09-02T19:01:09.927Z,20.11
2022-09-02T19:03:38.620Z,20.02
2022-09-02T19:06:08.287Z,19.99
2022-09-02T19:08:38.180Z,19.85
2022-09-02T19:11:08.643Z,19.81
2022-09-02T19:13:46.275Z,19.82
2022-09-02T19:16:16.065Z,19.87
2022-09-02T19:18:43.808Z,19.71
2022-09-02T19:21:12.500Z,19.78
2022-09-02T19:23:41.522Z,19.64
2022-09-02T19:26:09.373Z,19.51
2022-09-02T19:28:37.091Z,19.41
2022-09-02T19:31:05.187Z,19.35
2022-09-02T19:33:35.448Z,19.26
2022-09-02T19:36:03.418Z,19.31
2022-09-02T19:38:31.062Z,19.32
2022-09-02T19:41:01.846Z,19.36
2022-09-02T19:43:29.680Z,19.25
2022-09-02T19:45:57.523Z,19.17
2022-09-02T19:48:25.284Z,19.10
2022-09-02T19:50:53.151Z,19.04
2022-09-02T19:53:23.567Z,19.07
2022-09-02T19:55:51.499Z,19.08
2022-09-02T19:58:20.578Z,18.93
2022-09-02T20:00:48.360Z,18.95
2022-09-02T20:03:16.289Z,18.90
2022-09-02T20:05:43.864Z,18.89
2022-09-02T20:08:11.507Z,18.75
2022-09-02T20:10:39.988Z,18.62
2022-09-02T20:13:09.285Z,18.62
2022-09-02T20:15:39.368Z,18.51
2022-09-02T20:18:11.216Z,18.59
2022-09-02T20:20:39.241Z,18.48
2022-09-02T20:23:07.831Z,18.46
2022-09-02T20:25:45.105Z,18.40
2022-09-02T20:28:18.234Z,18.38
2022-09-02T20:30:49.544Z,18.50
2022-09-02T20:33:19.464Z,18.35
2022-09-02T20:36:02.462Z,18.30
2022-09-02T20:38:39.943Z,18.17
2022-09-02T20:41:10.921Z,18.16
2022-09-02T20:43:51.601Z,18.14
2022-09-02T20:46:29.520Z,18.17
2022-09-02T20:49:08.203Z,18.14
2022-09-02T20:51:41.158Z,18.09
2022-09-02T20:54:19.824Z,18.20
2022-09-02T20:56:52.546Z,18.34
2022-09-02T20:59:24.692Z,18.22
2022-09-02T21:01:56.966Z,18.17
2022-09-02T21:04:31.842Z,18.20
2022-09-02T21:07:02.395Z,18.03
2022-09-02T21:09:38.368Z,18.09
2022-09-02T21:12:14.787Z,18.03
2022-09-02T21:14:46.739Z,17.89
2022-09-02T21:17:21.377Z,17.95
2022-09-02T21:19:54.343Z,17.93
2022-09-02T21:22:26.052Z,18.00
2022-09-02T21:24:57.073Z,17.87
2022-09-02T21:27:26.992Z,17.75
2022-09-02T21:30:01.630Z,17.85
2022-09-02T21:32:35.997Z,17.79
2022-09-02T21:35:05.231Z,17.75
2022-09-02T21:37:34.605Z,17.75
2022-09-02T21:40:06.902Z,17.64
2022-09-02T21:42:44.704Z,17.66
2022-09-02T21:45:18.292Z,17.50
2022-09-02T21:47:53.214Z,17.62
2022-09-02T21:50:25.336Z,17.57
2022-09-02T21:53:00.586Z,17.54
2022-09-02T21:55:38.940Z,17.55
2022-09-02T21:58:16.426Z,17.57
2022-09-02T22:00:46.918Z,17.50
2022-09-02T22:03:21.047Z,17.41
2022-09-02T22:05:51.201Z,17.40
2022-09-02T22:08:25.590Z,17.36
2022-09-02T22:11:01.850Z,17.27
2022-09-02T22:13:31.221Z,17.21
2022-09-02T22:16:04.252Z,17.17
2022-09-02T22:18:39.268Z,17.21
2022-09-02T22:21:19.723Z,17.13
2022-09-02T22:23:47.553Z,17.03
2022-09-02T22:26:25.082Z,16.95
2022-09-02T22:28:55.064Z,16.96
2022-09-02T22:31:26.070Z,16.91
2022-09-02T22:33:58.767Z,16.89
2022-09-02T22:36:38.252Z,16.83
2022-09-02T22:39:07.724Z,16.78
2022-09-02T22:41:46.721Z,16.74
2022-09-02T22:44:17.327Z,16.74
2022-09-02T22:47:07.173Z,16.75
2022-09-02T22:50:05.011Z,16.72
2022-09-02T22:52:49.661Z,16.67
2022-09-02T22:55:21.486Z,16.65
2022-09-02T22:57:56.311Z,16.54
2022-09-02T23:00:25.766Z,16.50
2022-09-02T23:02:58.178Z,16.55
2022-09-02T23:05:45.007Z,16.50
2022-09-02T23:08:14.225Z,16.42
2022-09-02T23:10:47.192Z,16.44
2022-09-02T23:13:20.503Z,16.40
2022-09-02T23:15:58.602Z,16.41
2022-09-02T23:18:38.959Z,16.40
2022-09-02T23:21:14.652Z,16.30
2022-09-02T23:23:48.305Z,16.35
2022-09-02T23:26:25.884Z,16.38
2022-09-02T23:29:02.453Z,16.38
2022-09-02T23:31:39.944Z,16.33
2022-09-02T23:34:17.007Z,16.39
2022-09-02T23:36:52.289Z,16.33
2022-09-02T23:39:44.070Z,16.47
2022-09-02T23:42:13.376Z,16.31
2022-09-02T23:44:41.743Z,16.39
2022-09-02T23:47:20.365Z,16.22
2022-09-02T23:49:53.206Z,16.30
2022-09-02T23:52:26.221Z,16.18
2022-09-02T23:55:04.518Z,16.19
2022-09-02T23:57:49.028Z,16.17
